sensor_id;sensor_type;location;lat;lon;timestamp;P1;durP1;ratioP1;P2;durP2;ratioP2
4420;SDS011;11824;51.178;13.546;2023-05-07T00:00:35;18.00;;;10.27;;
4420;SDS011;11824;51.178;13.546;2023-05-07T00:03:03;16.23;;;10.50;;
4420;SDS011;11824;51.178;13.546;2023-05-07T00:05:31;16.43;;;10.30;;
4420;SDS011;11824;51.178;13.546;2023-05-07T00:07:59;15.10;;;10.47;;
4420;SDS011;11824;51.178;13.546;2023-05-07T00:10:26;19.40;;;12.33;;
4420;SDS011;11824;51.178;13.546;2023-05-07T00:12:54;21.03;;;8.63;;
4420;SDS011;11824;51.178;13.546;2023-05-07T00:15:21;17.73;;;10.23;;
4420;SDS011;11824;51.178;13.546;2023-05-07T00:17:49;12.23;;;7.63;;
4420;SDS011;11824;51.178;13.546;2023-05-07T00:20:16;20.00;;;13.50;;
4420;SDS011;11824;51.178;13.546;2023-05-07T00:22:44;19.33;;;13.43;;
4420;SDS011;11824;51.178;13.546;2023-05-07T00:25:12;20.30;;;13.53;;
4420;SDS011;11824;51.178;13.546;2023-05-07T00:27:40;19.60;;;11.53;;
4420;SDS011;11824;51.178;13.546;2023-05-07T00:30:07;20.23;;;13.33;;
4420;SDS011;11824;51.178;13.546;2023-05-07T00:32:36;23.77;;;15.37;;
4420;SDS011;11824;51.178;13.546;2023-05-07T00:35:04;15.20;;;10.27;;
4420;SDS011;11824;51.178;13.546;2023-05-07T00:37:33;18.97;;;13.97;;
4420;SDS011;11824;51.178;13.546;2023-05-07T00:40:00;18.67;;;13.70;;
4420;SDS011;11824;51.178;13.546;2023-05-07T00:42:30;13.87;;;9.03;;
4420;SDS011;11824;51.178;13.546;2023-05-07T00:44:58;17.50;;;13.63;;
4420;SDS011;11824;51.178;13.546;2023-05-07T00:47:26;16.87;;;11.50;;
4420;SDS011;11824;51.178;13.546;2023-05-07T00:49:53;18.70;;;12.50;;
4420;SDS011;11824;51.178;13.546;2023-05-07T00:52:21;21.47;;;14.63;;
4420;SDS011;11824;51.178;13.546;2023-05-07T00:54:52;20.57;;;12.53;;
4420;SDS011;11824;51.178;13.546;2023-05-07T00:57:20;17.33;;;11.00;;
4420;SDS011;11824;51.178;13.546;2023-05-07T00:59:52;18.80;;;12.30;;
4420;SDS011;11824;51.178;13.546;2023-05-07T01:02:20;19.00;;;13.43;;
4420;SDS011;11824;51.178;13.546;2023-05-07T01:04:47;22.23;;;14.40;;
4420;SDS011;11824;51.178;13.546;2023-05-07T01:07:15;18.10;;;12.13;;
4420;SDS011;11824;51.178;13.546;2023-05-07T01:09:43;18.27;;;11.37;;
4420;SDS011;11824;51.178;13.546;2023-05-07T01:12:11;23.60;;;14.97;;
4420;SDS011;11824;51.178;13.546;2023-05-07T01:14:39;20.87;;;13.57;;
4420;SDS011;11824;51.178;13.546;2023-05-07T01:17:07;20.43;;;14.00;;
4420;SDS011;11824;51.178;13.546;2023-05-07T01:19:35;18.33;;;12.93;;
4420;SDS011;11824;51.178;13.546;2023-05-07T01:22:04;15.47;;;10.77;;
4420;SDS011;11824;51.178;13.546;2023-05-07T01:24:36;19.97;;;14.20;;
4420;SDS011;11824;51.178;13.546;2023-05-07T01:27:04;17.93;;;10.70;;
4420;SDS011;11824;51.178;13.546;2023-05-07T01:29:32;22.23;;;11.33;;
4420;SDS011;11824;51.178;13.546;2023-05-07T01:32:00;22.97;;;13.73;;
4420;SDS011;11824;51.178;13.546;2023-05-07T01:34:30;18.57;;;13.43;;
4420;SDS011;11824;51.178;13.546;2023-05-07T01:37:01;19.67;;;14.80;;
4420;SDS011;11824;51.178;13.546;2023-05-07T01:39:29;16.37;;;11.47;;
4420;SDS011;11824;51.178;13.546;2023-05-07T01:41:59;21.53;;;13.77;;
4420;SDS011;11824;51.178;13.546;2023-05-07T01:44:26;16.47;;;12.30;;
4420;SDS011;11824;51.178;13.546;2023-05-07T01:46:54;21.57;;;13.07;;
4420;SDS011;11824;51.178;13.546;2023-05-07T01:49:22;17.40;;;9.73;;
4420;SDS011;11824;51.178;13.546;2023-05-07T01:51:50;19.33;;;12.03;;
4420;SDS011;11824;51.178;13.546;2023-05-07T01:54:18;21.80;;;14.03;;
4420;SDS011;11824;51.178;13.546;2023-05-07T01:56:50;23.37;;;15.67;;
4420;SDS011;11824;51.178;13.546;2023-05-07T01:59:19;23.70;;;13.53;;
4420;SDS011;11824;51.178;13.546;2023-05-07T02:01:46;27.27;;;13.90;;
4420;SDS011;11824;51.178;13.546;2023-05-07T02:04:14;23.20;;;14.67;;
4420;SDS011;11824;51.178;13.546;2023-05-07T02:06:41;23.33;;;15.47;;
4420;SDS011;11824;51.178;13.546;2023-05-07T02:09:09;24.10;;;15.03;;
4420;SDS011;11824;51.178;13.546;2023-05-07T02:11:37;24.27;;;13.07;;
4420;SDS011;11824;51.178;13.546;2023-05-07T02:14:04;21.57;;;12.23;;
4420;SDS011;11824;51.178;13.546;2023-05-07T02:16:32;25.27;;;14.00;;
4420;SDS011;11824;51.178;13.546;2023-05-07T02:19:00;21.50;;;13.77;;
4420;SDS011;11824;51.178;13.546;2023-05-07T02:21:27;23.20;;;13.33;;
4420;SDS011;11824;51.178;13.546;2023-05-07T02:23:56;30.43;;;16.07;;
4420;SDS011;11824;51.178;13.546;2023-05-07T02:26:24;25.90;;;16.17;;
4420;SDS011;11824;51.178;13.546;2023-05-07T02:28:51;22.93;;;12.43;;
4420;SDS011;11824;51.178;13.546;2023-05-07T02:31:19;25.90;;;14.10;;
4420;SDS011;11824;51.178;13.546;2023-05-07T02:33:47;29.10;;;17.00;;
4420;SDS011;11824;51.178;13.546;2023-05-07T02:36:15;29.20;;;15.20;;
4420;SDS011;11824;51.178;13.546;2023-05-07T02:38:42;27.73;;;12.40;;
4420;SDS011;11824;51.178;13.546;2023-05-07T02:41:10;24.97;;;14.27;;
4420;SDS011;11824;51.178;13.546;2023-05-07T02:43:37;23.20;;;13.40;;
4420;SDS011;11824;51.178;13.546;2023-05-07T02:46:05;11.97;;;7.50;;
4420;SDS011;11824;51.178;13.546;2023-05-07T02:48:34;22.73;;;13.27;;
4420;SDS011;11824;51.178;13.546;2023-05-07T02:51:03;23.23;;;14.03;;
4420;SDS011;11824;51.178;13.546;2023-05-07T02:53:31;20.33;;;10.30;;
4420;SDS011;11824;51.178;13.546;2023-05-07T02:55:59;22.23;;;11.53;;
4420;SDS011;11824;51.178;13.546;2023-05-07T02:58:27;27.67;;;12.67;;
4420;SDS011;11824;51.178;13.546;2023-05-07T03:00:55;21.50;;;12.17;;
4420;SDS011;11824;51.178;13.546;2023-05-07T03:03:23;28.83;;;12.53;;
4420;SDS011;11824;51.178;13.546;2023-05-07T03:05:50;25.23;;;10.87;;
4420;SDS011;11824;51.178;13.546;2023-05-07T03:08:18;28.87;;;14.53;;
4420;SDS011;11824;51.178;13.546;2023-05-07T03:10:46;22.10;;;12.47;;
4420;SDS011;11824;51.178;13.546;2023-05-07T03:13:14;27.83;;;15.17;;
4420;SDS011;11824;51.178;13.546;2023-05-07T03:15:41;26.80;;;14.70;;
4420;SDS011;11824;51.178;13.546;2023-05-07T03:18:09;26.10;;;12.87;;
4420;SDS011;11824;51.178;13.546;2023-05-07T03:20:36;29.10;;;14.23;;
4420;SDS011;11824;51.178;13.546;2023-05-07T03:23:04;19.80;;;11.90;;
4420;SDS011;11824;51.178;13.546;2023-05-07T03:25:32;18.10;;;10.40;;
4420;SDS011;11824;51.178;13.546;2023-05-07T03:28:00;15.23;;;8.73;;
4420;SDS011;11824;51.178;13.546;2023-05-07T03:30:27;15.40;;;8.00;;
4420;SDS011;11824;51.178;13.546;2023-05-07T03:32:55;20.17;;;13.10;;
4420;SDS011;11824;51.178;13.546;2023-05-07T03:35:22;15.33;;;8.17;;
4420;SDS011;11824;51.178;13.546;2023-05-07T03:37:50;23.77;;;13.90;;
4420;SDS011;11824;51.178;13.546;2023-05-07T03:40:17;21.83;;;12.20;;
4420;SDS011;11824;51.178;13.546;2023-05-07T03:42:46;20.00;;;13.23;;
4420;SDS011;11824;51.178;13.546;2023-05-07T03:45:13;20.17;;;11.60;;
4420;SDS011;11824;51.178;13.546;2023-05-07T03:47:41;18.17;;;10.73;;
4420;SDS011;11824;51.178;13.546;2023-05-07T03:50:09;16.20;;;9.70;;
4420;SDS011;11824;51.178;13.546;2023-05-07T03:52:37;17.83;;;8.60;;
4420;SDS011;11824;51.178;13.546;2023-05-07T03:55:05;18.23;;;10.40;;
4420;SDS011;11824;51.178;13.546;2023-05-07T03:57:33;18.33;;;11.20;;
4420;SDS011;11824;51.178;13.546;2023-05-07T04:00:01;14.57;;;8.20;;
4420;SDS011;11824;51.178;13.546;2023-05-07T04:02:30;18.13;;;10.30;;
4420;SDS011;11824;51.178;13.546;2023-05-07T04:04:58;16.47;;;8.57;;
4420;SDS011;11824;51.178;13.546;2023-05-07T04:07:25;10.37;;;5.93;;
4420;SDS011;11824;51.178;13.546;2023-05-07T04:09:53;14.27;;;9.63;;
4420;SDS011;11824;51.178;13.546;2023-05-07T04:12:20;15.77;;;7.83;;
4420;SDS011;11824;51.178;13.546;2023-05-07T04:14:48;14.10;;;7.50;;
4420;SDS011;11824;51.178;13.546;2023-05-07T04:17:16;21.33;;;12.80;;
4420;SDS011;11824;51.178;13.546;2023-05-07T04:19:43;19.20;;;13.27;;
4420;SDS011;11824;51.178;13.546;2023-05-07T04:22:11;29.07;;;15.53;;
4420;SDS011;11824;51.178;13.546;2023-05-07T04:24:38;22.50;;;13.87;;
4420;SDS011;11824;51.178;13.546;2023-05-07T04:27:06;24.37;;;12.93;;
4420;SDS011;11824;51.178;13.546;2023-05-07T04:29:33;28.77;;;14.50;;
4420;SDS011;11824;51.178;13.546;2023-05-07T04:32:01;26.57;;;14.93;;
4420;SDS011;11824;51.178;13.546;2023-05-07T04:34:29;19.43;;;12.23;;
4420;SDS011;11824;51.178;13.546;2023-05-07T04:36:58;21.13;;;15.40;;
4420;SDS011;11824;51.178;13.546;2023-05-07T04:39:26;24.93;;;13.03;;
4420;SDS011;11824;51.178;13.546;2023-05-07T04:41:53;26.77;;;10.50;;
4420;SDS011;11824;51.178;13.546;2023-05-07T04:44:21;18.27;;;9.67;;
4420;SDS011;11824;51.178;13.546;2023-05-07T04:46:48;22.20;;;13.83;;
4420;SDS011;11824;51.178;13.546;2023-05-07T04:49:16;18.07;;;9.27;;
4420;SDS011;11824;51.178;13.546;2023-05-07T04:51:44;21.40;;;12.33;;
4420;SDS011;11824;51.178;13.546;2023-05-07T04:54:12;17.57;;;11.50;;
4420;SDS011;11824;51.178;13.546;2023-05-07T04:56:39;21.33;;;11.20;;
4420;SDS011;11824;51.178;13.546;2023-05-07T04:59:07;18.33;;;12.17;;
4420;SDS011;11824;51.178;13.546;2023-05-07T05:01:34;18.10;;;11.83;;
4420;SDS011;11824;51.178;13.546;2023-05-07T05:04:02;16.27;;;9.07;;
4420;SDS011;11824;51.178;13.546;2023-05-07T05:06:29;18.33;;;11.30;;
4420;SDS011;11824;51.178;13.546;2023-05-07T05:08:58;16.43;;;9.50;;
4420;SDS011;11824;51.178;13.546;2023-05-07T05:11:26;17.00;;;11.77;;
4420;SDS011;11824;51.178;13.546;2023-05-07T05:13:53;18.77;;;12.33;;
4420;SDS011;11824;51.178;13.546;2023-05-07T05:16:20;17.07;;;10.37;;
4420;SDS011;11824;51.178;13.546;2023-05-07T05:18:48;18.07;;;10.60;;
4420;SDS011;11824;51.178;13.546;2023-05-07T05:21:17;14.93;;;9.07;;
4420;SDS011;11824;51.178;13.546;2023-05-07T05:23:45;13.77;;;9.50;;
4420;SDS011;11824;51.178;13.546;2023-05-07T05:26:13;13.97;;;9.80;;
4420;SDS011;11824;51.178;13.546;2023-05-07T05:28:40;18.53;;;11.83;;
4420;SDS011;11824;51.178;13.546;2023-05-07T05:31:08;19.23;;;11.70;;
4420;SDS011;11824;51.178;13.546;2023-05-07T05:33:35;18.50;;;10.73;;
4420;SDS011;11824;51.178;13.546;2023-05-07T05:36:03;19.90;;;12.73;;
4420;SDS011;11824;51.178;13.546;2023-05-07T05:38:31;18.83;;;10.90;;
4420;SDS011;11824;51.178;13.546;2023-05-07T05:40:59;6.63;;;5.03;;
4420;SDS011;11824;51.178;13.546;2023-05-07T05:43:27;9.20;;;6.27;;
4420;SDS011;11824;51.178;13.546;2023-05-07T05:45:55;20.70;;;11.70;;
4420;SDS011;11824;51.178;13.546;2023-05-07T05:48:23;22.30;;;11.40;;
4420;SDS011;11824;51.178;13.546;2023-05-07T05:50:51;14.43;;;7.67;;
4420;SDS011;11824;51.178;13.546;2023-05-07T05:53:18;10.13;;;6.10;;
4420;SDS011;11824;51.178;13.546;2023-05-07T05:55:46;19.03;;;10.60;;
4420;SDS011;11824;51.178;13.546;2023-05-07T05:58:14;20.00;;;11.00;;
4420;SDS011;11824;51.178;13.546;2023-05-07T06:00:42;12.70;;;8.80;;
4420;SDS011;11824;51.178;13.546;2023-05-07T06:03:10;13.80;;;8.77;;
4420;SDS011;11824;51.178;13.546;2023-05-07T06:05:39;12.70;;;8.47;;
4420;SDS011;11824;51.178;13.546;2023-05-07T06:08:07;12.70;;;9.90;;
4420;SDS011;11824;51.178;13.546;2023-05-07T06:10:35;8.80;;;5.70;;
4420;SDS011;11824;51.178;13.546;2023-05-07T06:13:03;8.33;;;6.27;;
4420;SDS011;11824;51.178;13.546;2023-05-07T06:15:30;6.80;;;4.67;;
4420;SDS011;11824;51.178;13.546;2023-05-07T06:17:59;6.43;;;4.27;;
4420;SDS011;11824;51.178;13.546;2023-05-07T06:20:26;11.37;;;6.73;;
4420;SDS011;11824;51.178;13.546;2023-05-07T06:22:53;8.87;;;4.97;;
4420;SDS011;11824;51.178;13.546;2023-05-07T06:25:21;8.67;;;6.87;;
4420;SDS011;11824;51.178;13.546;2023-05-07T06:27:49;13.07;;;5.73;;
4420;SDS011;11824;51.178;13.546;2023-05-07T06:30:16;9.50;;;6.70;;
4420;SDS011;11824;51.178;13.546;2023-05-07T06:32:43;8.70;;;5.33;;
4420;SDS011;11824;51.178;13.546;2023-05-07T06:35:12;9.00;;;6.97;;
4420;SDS011;11824;51.178;13.546;2023-05-07T06:37:40;9.90;;;6.17;;
4420;SDS011;11824;51.178;13.546;2023-05-07T06:40:08;6.90;;;5.73;;
4420;SDS011;11824;51.178;13.546;2023-05-07T06:42:37;8.73;;;5.40;;
4420;SDS011;11824;51.178;13.546;2023-05-07T06:45:05;9.00;;;6.50;;
4420;SDS011;11824;51.178;13.546;2023-05-07T06:47:34;6.67;;;5.97;;
4420;SDS011;11824;51.178;13.546;2023-05-07T06:50:01;8.20;;;6.00;;
4420;SDS011;11824;51.178;13.546;2023-05-07T06:52:30;5.90;;;4.00;;
4420;SDS011;11824;51.178;13.546;2023-05-07T06:54:57;5.70;;;5.10;;
4420;SDS011;11824;51.178;13.546;2023-05-07T06:57:25;4.20;;;3.80;;
4420;SDS011;11824;51.178;13.546;2023-05-07T06:59:53;10.70;;;5.60;;
4420;SDS011;11824;51.178;13.546;2023-05-07T07:02:20;6.47;;;5.57;;
4420;SDS011;11824;51.178;13.546;2023-05-07T07:04:48;6.10;;;4.43;;
4420;SDS011;11824;51.178;13.546;2023-05-07T07:07:15;9.70;;;6.80;;
4420;SDS011;11824;51.178;13.546;2023-05-07T07:09:44;7.20;;;5.00;;
4420;SDS011;11824;51.178;13.546;2023-05-07T07:12:11;11.00;;;5.87;;
4420;SDS011;11824;51.178;13.546;2023-05-07T07:14:39;7.07;;;5.70;;
4420;SDS011;11824;51.178;13.546;2023-05-07T07:17:06;6.80;;;5.10;;
4420;SDS011;11824;51.178;13.546;2023-05-07T07:19:34;4.50;;;4.10;;
4420;SDS011;11824;51.178;13.546;2023-05-07T07:22:01;7.80;;;5.70;;
4420;SDS011;11824;51.178;13.546;2023-05-07T07:24:29;6.27;;;4.80;;
4420;SDS011;11824;51.178;13.546;2023-05-07T07:26:57;6.20;;;4.70;;
4420;SDS011;11824;51.178;13.546;2023-05-07T07:29:24;8.47;;;5.87;;
4420;SDS011;11824;51.178;13.546;2023-05-07T07:31:52;5.50;;;3.40;;
4420;SDS011;11824;51.178;13.546;2023-05-07T07:34:20;6.67;;;5.30;;
4420;SDS011;11824;51.178;13.546;2023-05-07T07:36:47;6.27;;;5.17;;
4420;SDS011;11824;51.178;13.546;2023-05-07T07:39:15;7.57;;;5.47;;
4420;SDS011;11824;51.178;13.546;2023-05-07T07:41:42;5.60;;;4.37;;
4420;SDS011;11824;51.178;13.546;2023-05-07T07:44:11;5.07;;;4.57;;
4420;SDS011;11824;51.178;13.546;2023-05-07T07:46:41;7.97;;;4.47;;
4420;SDS011;11824;51.178;13.546;2023-05-07T07:49:09;5.07;;;4.47;;
4420;SDS011;11824;51.178;13.546;2023-05-07T07:51:36;3.77;;;3.37;;
4420;SDS011;11824;51.178;13.546;2023-05-07T07:54:04;4.70;;;3.67;;
4420;SDS011;11824;51.178;13.546;2023-05-07T07:56:31;2.80;;;2.47;;
4420;SDS011;11824;51.178;13.546;2023-05-07T07:58:59;5.13;;;4.63;;
4420;SDS011;11824;51.178;13.546;2023-05-07T08:01:29;7.30;;;4.50;;
4420;SDS011;11824;51.178;13.546;2023-05-07T08:03:57;23.50;;;14.27;;
4420;SDS011;11824;51.178;13.546;2023-05-07T08:06:24;18.33;;;12.30;;
4420;SDS011;11824;51.178;13.546;2023-05-07T08:08:52;13.17;;;8.50;;
4420;SDS011;11824;51.178;13.546;2023-05-07T08:11:20;3.87;;;3.53;;
4420;SDS011;11824;51.178;13.546;2023-05-07T08:13:47;5.67;;;4.57;;
4420;SDS011;11824;51.178;13.546;2023-05-07T08:16:16;3.77;;;3.40;;
4420;SDS011;11824;51.178;13.546;2023-05-07T08:18:44;5.37;;;4.77;;
4420;SDS011;11824;51.178;13.546;2023-05-07T08:21:11;3.70;;;3.00;;
4420;SDS011;11824;51.178;13.546;2023-05-07T08:23:39;4.83;;;3.60;;
4420;SDS011;11824;51.178;13.546;2023-05-07T08:26:07;4.67;;;4.03;;
4420;SDS011;11824;51.178;13.546;2023-05-07T08:28:35;4.57;;;3.83;;
4420;SDS011;11824;51.178;13.546;2023-05-07T08:31:02;3.40;;;2.37;;
4420;SDS011;11824;51.178;13.546;2023-05-07T08:33:30;3.40;;;3.10;;
4420;SDS011;11824;51.178;13.546;2023-05-07T08:35:59;3.40;;;3.10;;
4420;SDS011;11824;51.178;13.546;2023-05-07T08:38:26;4.27;;;3.40;;
4420;SDS011;11824;51.178;13.546;2023-05-07T08:40:54;5.17;;;4.40;;
4420;SDS011;11824;51.178;13.546;2023-05-07T08:43:21;4.87;;;4.37;;
4420;SDS011;11824;51.178;13.546;2023-05-07T08:45:53;4.17;;;3.77;;
4420;SDS011;11824;51.178;13.546;2023-05-07T08:48:22;4.60;;;4.20;;
4420;SDS011;11824;51.178;13.546;2023-05-07T08:51:15;4.43;;;4.03;;
4420;SDS011;11824;51.178;13.546;2023-05-07T08:53:45;4.83;;;4.33;;
4420;SDS011;11824;51.178;13.546;2023-05-07T08:56:17;6.47;;;4.77;;
4420;SDS011;11824;51.178;13.546;2023-05-07T08:58:56;8.57;;;5.90;;
4420;SDS011;11824;51.178;13.546;2023-05-07T09:01:34;5.13;;;4.10;;
4420;SDS011;11824;51.178;13.546;2023-05-07T09:04:06;7.10;;;5.47;;
4420;SDS011;11824;51.178;13.546;2023-05-07T09:07:05;10.33;;;6.00;;
4420;SDS011;11824;51.178;13.546;2023-05-07T09:09:49;8.00;;;6.53;;
4420;SDS011;11824;51.178;13.546;2023-05-07T09:12:40;6.87;;;5.87;;
4420;SDS011;11824;51.178;13.546;2023-05-07T09:15:18;8.00;;;7.00;;
4420;SDS011;11824;51.178;13.546;2023-05-07T09:17:53;5.50;;;4.53;;
4420;SDS011;11824;51.178;13.546;2023-05-07T09:20:20;10.63;;;6.80;;
4420;SDS011;11824;51.178;13.546;2023-05-07T09:22:49;8.70;;;5.90;;
4420;SDS011;11824;51.178;13.546;2023-05-07T09:25:18;6.50;;;4.77;;
4420;SDS011;11824;51.178;13.546;2023-05-07T09:28:04;9.47;;;7.00;;
4420;SDS011;11824;51.178;13.546;2023-05-07T09:30:38;6.70;;;4.73;;
4420;SDS011;11824;51.178;13.546;2023-05-07T09:33:06;12.07;;;7.30;;
4420;SDS011;11824;51.178;13.546;2023-05-07T09:35:38;7.53;;;6.67;;
4420;SDS011;11824;51.178;13.546;2023-05-07T09:41:09;5.83;;;5.17;;
4420;SDS011;11824;51.178;13.546;2023-05-07T09:43:39;5.17;;;4.50;;
4420;SDS011;11824;51.178;13.546;2023-05-07T09:46:29;11.40;;;6.07;;
4420;SDS011;11824;51.178;13.546;2023-05-07T09:49:12;16.30;;;7.97;;
4420;SDS011;11824;51.178;13.546;2023-05-07T09:51:47;8.80;;;5.70;;
4420;SDS011;11824;51.178;13.546;2023-05-07T09:54:20;10.40;;;7.00;;
4420;SDS011;11824;51.178;13.546;2023-05-07T09:56:48;8.03;;;6.23;;
4420;SDS011;11824;51.178;13.546;2023-05-07T09:59:26;8.53;;;5.80;;
4420;SDS011;11824;51.178;13.546;2023-05-07T10:02:00;8.20;;;6.27;;
4420;SDS011;11824;51.178;13.546;2023-05-07T10:04:33;8.93;;;7.13;;
4420;SDS011;11824;51.178;13.546;2023-05-07T10:07:04;9.13;;;5.73;;
4420;SDS011;11824;51.178;13.546;2023-05-07T10:09:36;11.70;;;6.73;;
4420;SDS011;11824;51.178;13.546;2023-05-07T10:12:04;14.07;;;7.87;;
4420;SDS011;11824;51.178;13.546;2023-05-07T10:14:36;9.23;;;7.10;;
4420;SDS011;11824;51.178;13.546;2023-05-07T10:17:08;14.30;;;6.43;;
4420;SDS011;11824;51.178;13.546;2023-05-07T10:19:47;10.27;;;8.00;;
4420;SDS011;11824;51.178;13.546;2023-05-07T10:22:22;8.80;;;6.27;;
4420;SDS011;11824;51.178;13.546;2023-05-07T10:24:56;9.50;;;4.77;;
4420;SDS011;11824;51.178;13.546;2023-05-07T10:27:37;12.20;;;9.83;;
4420;SDS011;11824;51.178;13.546;2023-05-07T10:30:53;10.90;;;6.40;;
4420;SDS011;11824;51.178;13.546;2023-05-07T10:33:40;13.07;;;7.70;;
4420;SDS011;11824;51.178;13.546;2023-05-07T10:36:10;6.60;;;4.80;;
4420;SDS011;11824;51.178;13.546;2023-05-07T10:38:39;7.50;;;6.43;;
4420;SDS011;11824;51.178;13.546;2023-05-07T10:41:08;10.10;;;7.80;;
4420;SDS011;11824;51.178;13.546;2023-05-07T10:43:41;10.80;;;7.00;;
4420;SDS011;11824;51.178;13.546;2023-05-07T11:41:17;13.20;;;7.47;;
4420;SDS011;11824;51.178;13.546;2023-05-07T11:43:55;6.27;;;3.87;;
4420;SDS011;11824;51.178;13.546;2023-05-07T11:46:24;7.43;;;6.10;;
4420;SDS011;11824;51.178;13.546;2023-05-07T11:48:52;10.50;;;6.20;;
4420;SDS011;11824;51.178;13.546;2023-05-07T11:51:23;6.20;;;5.17;;
4420;SDS011;11824;51.178;13.546;2023-05-07T11:53:52;10.33;;;5.70;;
4420;SDS011;11824;51.178;13.546;2023-05-07T11:56:20;9.47;;;7.37;;
4420;SDS011;11824;51.178;13.546;2023-05-07T11:58:48;11.17;;;6.83;;
4420;SDS011;11824;51.178;13.546;2023-05-07T12:01:17;4.77;;;4.10;;
4420;SDS011;11824;51.178;13.546;2023-05-07T12:03:45;12.33;;;6.00;;
4420;SDS011;11824;51.178;13.546;2023-05-07T12:06:13;5.97;;;5.00;;
4420;SDS011;11824;51.178;13.546;2023-05-07T12:08:42;3.50;;;2.40;;
4420;SDS011;11824;51.178;13.546;2023-05-07T12:11:14;6.37;;;5.27;;
4420;SDS011;11824;51.178;13.546;2023-05-07T12:13:44;4.60;;;3.83;;
4420;SDS011;11824;51.178;13.546;2023-05-07T12:16:12;3.60;;;3.27;;
4420;SDS011;11824;51.178;13.546;2023-05-07T12:18:40;6.80;;;5.00;;
4420;SDS011;11824;51.178;13.546;2023-05-07T12:21:08;6.27;;;5.60;;
4420;SDS011;11824;51.178;13.546;2023-05-07T12:23:36;8.33;;;5.33;;
4420;SDS011;11824;51.178;13.546;2023-05-07T12:26:05;9.00;;;5.50;;
4420;SDS011;11824;51.178;13.546;2023-05-07T12:28:36;5.80;;;5.30;;
4420;SDS011;11824;51.178;13.546;2023-05-07T12:31:06;8.17;;;5.50;;
4420;SDS011;11824;51.178;13.546;2023-05-07T12:33:34;7.60;;;6.30;;
4420;SDS011;11824;51.178;13.546;2023-05-07T12:36:03;4.40;;;4.00;;
4420;SDS011;11824;51.178;13.546;2023-05-07T12:38:37;5.53;;;4.27;;
4420;SDS011;11824;51.178;13.546;2023-05-07T12:41:05;7.70;;;4.97;;
4420;SDS011;11824;51.178;13.546;2023-05-07T12:43:34;5.80;;;5.20;;
4420;SDS011;11824;51.178;13.546;2023-05-07T12:46:03;6.13;;;5.53;;
4420;SDS011;11824;51.178;13.546;2023-05-07T12:48:32;6.57;;;5.30;;
4420;SDS011;11824;51.178;13.546;2023-05-07T12:51:02;7.40;;;6.13;;
4420;SDS011;11824;51.178;13.546;2023-05-07T12:53:31;7.70;;;3.90;;
4420;SDS011;11824;51.178;13.546;2023-05-07T12:55:59;4.53;;;3.03;;
4420;SDS011;11824;51.178;13.546;2023-05-07T12:58:27;5.10;;;4.60;;
4420;SDS011;11824;51.178;13.546;2023-05-07T13:00:58;6.00;;;5.33;;
4420;SDS011;11824;51.178;13.546;2023-05-07T13:03:28;6.23;;;5.63;;
4420;SDS011;11824;51.178;13.546;2023-05-07T13:05:58;4.20;;;3.20;;
4420;SDS011;11824;51.178;13.546;2023-05-07T13:08:28;8.30;;;5.93;;
4420;SDS011;11824;51.178;13.546;2023-05-07T13:10:57;6.63;;;5.77;;
4420;SDS011;11824;51.178;13.546;2023-05-07T13:13:29;6.30;;;4.93;;
4420;SDS011;11824;51.178;13.546;2023-05-07T13:15:58;5.57;;;4.53;;
4420;SDS011;11824;51.178;13.546;2023-05-07T13:18:26;6.87;;;5.73;;
4420;SDS011;11824;51.178;13.546;2023-05-07T13:20:55;8.80;;;4.90;;
4420;SDS011;11824;51.178;13.546;2023-05-07T13:23:24;4.40;;;3.40;;
4420;SDS011;11824;51.178;13.546;2023-05-07T13:25:52;2.90;;;2.40;;
4420;SDS011;11824;51.178;13.546;2023-05-07T13:28:20;5.27;;;4.20;;
4420;SDS011;11824;51.178;13.546;2023-05-07T13:30:47;5.90;;;4.97;;
4420;SDS011;11824;51.178;13.546;2023-05-07T13:33:17;4.77;;;3.57;;
4420;SDS011;11824;51.178;13.546;2023-05-07T13:35:45;5.90;;;4.53;;
4420;SDS011;11824;51.178;13.546;2023-05-07T13:38:13;4.33;;;3.80;;
4420;SDS011;11824;51.178;13.546;2023-05-07T13:40:41;5.43;;;3.87;;
4420;SDS011;11824;51.178;13.546;2023-05-07T13:43:08;10.80;;;4.70;;
4420;SDS011;11824;51.178;13.546;2023-05-07T13:45:37;4.37;;;3.70;;
4420;SDS011;11824;51.178;13.546;2023-05-07T13:48:04;4.40;;;4.00;;
4420;SDS011;11824;51.178;13.546;2023-05-07T13:50:32;5.53;;;4.50;;
4420;SDS011;11824;51.178;13.546;2023-05-07T13:53:00;4.30;;;3.53;;
4420;SDS011;11824;51.178;13.546;2023-05-07T13:55:29;3.70;;;2.50;;
4420;SDS011;11824;51.178;13.546;2023-05-07T13:57:57;4.57;;;2.93;;
4420;SDS011;11824;51.178;13.546;2023-05-07T14:00:26;4.03;;;3.53;;
4420;SDS011;11824;51.178;13.546;2023-05-07T14:02:54;5.33;;;4.70;;
4420;SDS011;11824;51.178;13.546;2023-05-07T14:05:22;4.67;;;3.93;;
4420;SDS011;11824;51.178;13.546;2023-05-07T14:07:50;5.17;;;3.83;;
4420;SDS011;11824;51.178;13.546;2023-05-07T14:10:19;6.30;;;4.43;;
4420;SDS011;11824;51.178;13.546;2023-05-07T14:12:47;4.17;;;3.77;;
4420;SDS011;11824;51.178;13.546;2023-05-07T14:15:15;5.47;;;3.77;;
4420;SDS011;11824;51.178;13.546;2023-05-07T14:17:43;4.30;;;3.73;;
4420;SDS011;11824;51.178;13.546;2023-05-07T14:23:20;3.60;;;2.70;;
4420;SDS011;11824;51.178;13.546;2023-05-07T14:25:55;7.03;;;5.40;;
4420;SDS011;11824;51.178;13.546;2023-05-07T14:28:37;7.70;;;4.00;;
4420;SDS011;11824;51.178;13.546;2023-05-07T14:31:05;7.10;;;4.33;;
4420;SDS011;11824;51.178;13.546;2023-05-07T14:33:32;6.73;;;3.80;;
4420;SDS011;11824;51.178;13.546;2023-05-07T14:35:59;3.70;;;3.40;;
4420;SDS011;11824;51.178;13.546;2023-05-07T14:38:28;12.50;;;5.50;;
4420;SDS011;11824;51.178;13.546;2023-05-07T14:40:56;4.90;;;4.40;;
4420;SDS011;11824;51.178;13.546;2023-05-07T14:43:23;5.63;;;4.13;;
4420;SDS011;11824;51.178;13.546;2023-05-07T14:45:52;3.20;;;2.90;;
4420;SDS011;11824;51.178;13.546;2023-05-07T14:48:19;4.57;;;3.73;;
4420;SDS011;11824;51.178;13.546;2023-05-07T14:50:47;5.10;;;3.47;;
4420;SDS011;11824;51.178;13.546;2023-05-07T14:53:15;4.93;;;4.00;;
4420;SDS011;11824;51.178;13.546;2023-05-07T14:55:42;4.43;;;3.93;;
4420;SDS011;11824;51.178;13.546;2023-05-07T14:58:10;3.30;;;3.00;;
4420;SDS011;11824;51.178;13.546;2023-05-07T15:00:37;5.30;;;3.20;;
4420;SDS011;11824;51.178;13.546;2023-05-07T15:03:06;8.00;;;5.00;;
4420;SDS011;11824;51.178;13.546;2023-05-07T15:05:35;5.73;;;4.33;;
4420;SDS011;11824;51.178;13.546;2023-05-07T15:08:02;4.87;;;4.23;;
4420;SDS011;11824;51.178;13.546;2023-05-07T15:10:30;6.17;;;4.10;;
4420;SDS011;11824;51.178;13.546;2023-05-07T15:13:05;4.30;;;3.87;;
4420;SDS011;11824;51.178;13.546;2023-05-07T15:15:33;5.60;;;5.10;;
4420;SDS011;11824;51.178;13.546;2023-05-07T15:18:01;5.47;;;3.60;;
4420;SDS011;11824;51.178;13.546;2023-05-07T15:20:29;3.20;;;2.90;;
4420;SDS011;11824;51.178;13.546;2023-05-07T15:22:57;4.27;;;3.87;;
4420;SDS011;11824;51.178;13.546;2023-05-07T15:25:25;5.80;;;4.50;;
4420;SDS011;11824;51.178;13.546;2023-05-07T15:27:52;4.97;;;3.80;;
4420;SDS011;11824;51.178;13.546;2023-05-07T15:30:19;5.93;;;4.90;;
4420;SDS011;11824;51.178;13.546;2023-05-07T15:32:47;5.40;;;4.67;;
4420;SDS011;11824;51.178;13.546;2023-05-07T15:35:15;5.97;;;4.50;;
4420;SDS011;11824;51.178;13.546;2023-05-07T15:37:48;7.87;;;4.63;;
4420;SDS011;11824;51.178;13.546;2023-05-07T15:40:16;4.80;;;4.30;;
4420;SDS011;11824;51.178;13.546;2023-05-07T15:42:44;10.03;;;6.67;;
4420;SDS011;11824;51.178;13.546;2023-05-07T15:45:12;10.40;;;6.50;;
4420;SDS011;11824;51.178;13.546;2023-05-07T15:47:39;4.67;;;4.13;;